EJA672 LGSK-LIBR
Flight info
| Callsign | EJA672 |
|---|---|
| Flight time | 0h 50m |
| Altitude | 43000 |
| Route | EVIKO W58 AGH UV651 YNN UL613 VJOSA DCT GOKEL DCT NUCRE |
| Aircraft | C750/M-SBDE3FGHRWXY/S |
Departure
| Time | 2026-04-27 18:43 |
|---|---|
| Airport | Skiathos Island National Airport (LGSK) |
Arrival
| Time | 2026-04-27 19:33 |
|---|---|
| Airport | Brindisi Airport (LIBR) |
| Time | Latitude | Longitude | Altitude | Speed | Heading |
|---|---|---|---|---|---|
| 2026-04-27 18:34 | 39.17611 | 23.50176 | 35 ft | 0 kts | 109° |
| 2026-04-27 18:37 | 39.17605 | 23.50196 | 35 ft | 4 kts | 117° |
| 2026-04-27 18:37 | 39.17576 | 23.50234 | 35 ft | 10 kts | 135° |
| 2026-04-27 18:37 | 39.17519 | 23.50281 | 36 ft | 8 kts | 189° |
| 2026-04-27 18:38 | 39.17455 | 23.50254 | 35 ft | 14 kts | 199° |
| 2026-04-27 18:38 | 39.17341 | 23.50203 | 29 ft | 20 kts | 199° |
| 2026-04-27 18:38 | 39.17196 | 23.50138 | 20 ft | 24 kts | 199° |
| 2026-04-27 18:38 | 39.17078 | 23.50079 | 14 ft | 13 kts | 221° |
| 2026-04-27 18:39 | 39.17024 | 23.50060 | 7 ft | 1 kts | 78° |
| 2026-04-27 18:39 | 39.17046 | 23.50071 | 10 ft | 8 kts | 17° |
| 2026-04-27 18:39 | 39.17074 | 23.50083 | 14 ft | 0 kts | 18° |
| 2026-04-27 18:42 | 39.17536 | 23.50290 | 37 ft | 125 kts | 19° |
| 2026-04-27 18:42 | 39.18437 | 23.50682 | 547 ft | 135 kts | 18° |
| 2026-04-27 18:43 | 39.19353 | 23.51069 | 1281 ft | 142 kts | 21° |
| 2026-04-27 18:43 | 39.20317 | 23.51492 | 2040 ft | 150 kts | 22° |
| 2026-04-27 18:43 | 39.21323 | 23.52029 | 2614 ft | 170 kts | 34° |
| 2026-04-27 18:43 | 39.22100 | 23.53312 | 3004 ft | 197 kts | 65° |
| 2026-04-27 18:44 | 39.22330 | 23.55102 | 3809 ft | 212 kts | 94° |
| 2026-04-27 18:44 | 39.21747 | 23.56884 | 4788 ft | 222 kts | 127° |
| 2026-04-27 18:44 | 39.20685 | 23.58342 | 5823 ft | 222 kts | 134° |
| 2026-04-27 18:44 | 39.19562 | 23.59739 | 6699 ft | 236 kts | 136° |
| 2026-04-27 18:45 | 39.18337 | 23.61227 | 7605 ft | 240 kts | 135° |
| 2026-04-27 18:45 | 39.17007 | 23.62580 | 8487 ft | 256 kts | 154° |
| 2026-04-27 18:45 | 39.15162 | 23.62913 | 8889 ft | 288 kts | 189° |
| 2026-04-27 18:45 | 39.13400 | 23.61719 | 9809 ft | 289 kts | 227° |
| 2026-04-27 18:46 | 39.12455 | 23.59507 | 10625 ft | 293 kts | 257° |
| 2026-04-27 18:46 | 39.12494 | 23.56816 | 10888 ft | 316 kts | 286° |
| 2026-04-27 18:46 | 39.13648 | 23.54314 | 11057 ft | 340 kts | 314° |
| 2026-04-27 18:46 | 39.15565 | 23.52532 | 11878 ft | 340 kts | 327° |
| 2026-04-27 18:47 | 39.17433 | 23.50668 | 12528 ft | 345 kts | 310° |
| 2026-04-27 18:47 | 39.18474 | 23.47902 | 13335 ft | 346 kts | 285° |
| 2026-04-27 18:47 | 39.18804 | 23.44833 | 14155 ft | 347 kts | 276° |
| 2026-04-27 18:47 | 39.19020 | 23.41718 | 14887 ft | 351 kts | 275° |
| 2026-04-27 18:48 | 39.19146 | 23.38553 | 15572 ft | 355 kts | 273° |
| 2026-04-27 18:48 | 39.19254 | 23.35367 | 16283 ft | 358 kts | 273° |
| 2026-04-27 18:48 | 39.19403 | 23.32154 | 17003 ft | 361 kts | 274° |
| 2026-04-27 18:48 | 39.19566 | 23.28914 | 17774 ft | 364 kts | 274° |
| 2026-04-27 18:49 | 39.19709 | 23.25643 | 18534 ft | 367 kts | 273° |
| 2026-04-27 18:49 | 39.19845 | 23.22341 | 19217 ft | 371 kts | 273° |
| 2026-04-27 18:49 | 39.19991 | 23.19004 | 19898 ft | 375 kts | 274° |
| 2026-04-27 18:49 | 39.20142 | 23.15631 | 20588 ft | 379 kts | 274° |
| 2026-04-27 18:50 | 39.20289 | 23.12220 | 21276 ft | 383 kts | 274° |
| 2026-04-27 18:50 | 39.20436 | 23.08774 | 21948 ft | 388 kts | 274° |
| 2026-04-27 18:50 | 39.20584 | 23.05282 | 22594 ft | 392 kts | 274° |
| 2026-04-27 18:50 | 39.20734 | 23.01751 | 23253 ft | 397 kts | 274° |
| 2026-04-27 18:51 | 39.20884 | 22.98171 | 23885 ft | 401 kts | 274° |
| 2026-04-27 18:51 | 39.21034 | 22.94566 | 24452 ft | 404 kts | 274° |
| 2026-04-27 18:51 | 39.21184 | 22.90936 | 25031 ft | 407 kts | 274° |
| 2026-04-27 18:51 | 39.21334 | 22.87277 | 25599 ft | 410 kts | 274° |
| 2026-04-27 18:52 | 39.21484 | 22.83601 | 26161 ft | 413 kts | 274° |
| 2026-04-27 18:52 | 39.21753 | 22.79947 | 26664 ft | 416 kts | 280° |
| 2026-04-27 18:52 | 39.22464 | 22.76283 | 27252 ft | 417 kts | 288° |
| 2026-04-27 18:53 | 39.24296 | 22.69133 | 28364 ft | 423 kts | 288° |
| 2026-04-27 18:53 | 39.25205 | 22.65503 | 28911 ft | 427 kts | 288° |
| 2026-04-27 18:53 | 39.26120 | 22.61896 | 29474 ft | 430 kts | 288° |
| 2026-04-27 18:53 | 39.27069 | 22.58178 | 30018 ft | 433 kts | 288° |
| 2026-04-27 18:54 | 39.27996 | 22.54515 | 30495 ft | 437 kts | 288° |
| 2026-04-27 18:54 | 39.28936 | 22.50776 | 30955 ft | 439 kts | 288° |
| 2026-04-27 18:54 | 39.29882 | 22.47016 | 31537 ft | 439 kts | 288° |
| 2026-04-27 18:54 | 39.30823 | 22.43284 | 32237 ft | 436 kts | 288° |
| 2026-04-27 18:55 | 39.31759 | 22.39565 | 32903 ft | 434 kts | 288° |
| 2026-04-27 18:55 | 39.32688 | 22.35856 | 33584 ft | 433 kts | 288° |
| 2026-04-27 18:55 | 39.33612 | 22.32165 | 34255 ft | 431 kts | 288° |
| 2026-04-27 18:55 | 39.34532 | 22.28487 | 34830 ft | 430 kts | 288° |
| 2026-04-27 18:56 | 39.35451 | 22.24808 | 35396 ft | 429 kts | 288° |
| 2026-04-27 18:56 | 39.36365 | 22.21141 | 35966 ft | 428 kts | 288° |
| 2026-04-27 18:56 | 39.37277 | 22.17479 | 36533 ft | 428 kts | 288° |
| 2026-04-27 18:56 | 39.38186 | 22.13823 | 37102 ft | 427 kts | 288° |
| 2026-04-27 18:57 | 39.39093 | 22.10169 | 37667 ft | 426 kts | 288° |
| 2026-04-27 18:57 | 39.39997 | 22.06520 | 38245 ft | 426 kts | 288° |
| 2026-04-27 18:57 | 39.40898 | 22.02877 | 38825 ft | 425 kts | 288° |
| 2026-04-27 18:57 | 39.41798 | 21.99237 | 39285 ft | 425 kts | 288° |
| 2026-04-27 18:58 | 39.42685 | 21.95641 | 39720 ft | 424 kts | 288° |
| 2026-04-27 18:58 | 39.43288 | 21.93191 | 40027 ft | 424 kts | 287° |
| 2026-04-27 18:58 | 39.44474 | 21.88371 | 40632 ft | 424 kts | 287° |
| 2026-04-27 18:58 | 39.45367 | 21.84735 | 41093 ft | 424 kts | 287° |
| 2026-04-27 18:59 | 39.46256 | 21.81112 | 41584 ft | 423 kts | 287° |
| 2026-04-27 18:59 | 39.47146 | 21.77476 | 42045 ft | 423 kts | 287° |
| 2026-04-27 18:59 | 39.48032 | 21.73848 | 42497 ft | 423 kts | 287° |
| 2026-04-27 18:59 | 39.48918 | 21.70220 | 42937 ft | 421 kts | 287° |
| 2026-04-27 19:00 | 39.49803 | 21.66591 | 43137 ft | 427 kts | 287° |
| 2026-04-27 19:00 | 39.51625 | 21.59095 | 43141 ft | 446 kts | 287° |
| 2026-04-27 19:01 | 39.53191 | 21.52637 | 43156 ft | 458 kts | 287° |
| 2026-04-27 19:01 | 39.55131 | 21.44607 | 43143 ft | 474 kts | 287° |
| 2026-04-27 19:02 | 39.57098 | 21.36441 | 43148 ft | 474 kts | 287° |
| 2026-04-27 19:02 | 39.59058 | 21.28273 | 43145 ft | 476 kts | 287° |
| 2026-04-27 19:03 | 39.61017 | 21.20082 | 43127 ft | 475 kts | 287° |
| 2026-04-27 19:03 | 39.62968 | 21.11899 | 43112 ft | 476 kts | 287° |
| 2026-04-27 19:04 | 39.64915 | 21.03702 | 43110 ft | 476 kts | 287° |
| 2026-04-27 19:04 | 39.66860 | 20.95483 | 43106 ft | 475 kts | 287° |
| 2026-04-27 19:05 | 39.68807 | 20.87275 | 43099 ft | 476 kts | 288° |
| 2026-04-27 19:05 | 39.71798 | 20.79630 | 43090 ft | 477 kts | 303° |
| 2026-04-27 19:06 | 39.76028 | 20.73011 | 43110 ft | 480 kts | 309° |
| 2026-04-27 19:06 | 39.80358 | 20.66405 | 43097 ft | 480 kts | 309° |
| 2026-04-27 19:07 | 39.84693 | 20.59810 | 43082 ft | 479 kts | 309° |
| 2026-04-27 19:07 | 39.89024 | 20.53193 | 43077 ft | 479 kts | 309° |
| 2026-04-27 19:08 | 39.93347 | 20.46577 | 43079 ft | 480 kts | 309° |
| 2026-04-27 19:08 | 39.97651 | 20.39929 | 43055 ft | 479 kts | 307° |
| 2026-04-27 19:09 | 40.01162 | 20.32569 | 43076 ft | 479 kts | 299° |
| 2026-04-27 19:09 | 40.04530 | 20.25135 | 43065 ft | 478 kts | 300° |
| 2026-04-27 19:10 | 40.07900 | 20.17647 | 43058 ft | 478 kts | 299° |
| 2026-04-27 19:10 | 40.11266 | 20.10156 | 43059 ft | 479 kts | 300° |
| 2026-04-27 19:11 | 40.14632 | 20.02651 | 43048 ft | 479 kts | 299° |
| 2026-04-27 19:11 | 40.17945 | 19.95242 | 43050 ft | 453 kts | 299° |
| 2026-04-27 19:11 | 40.19477 | 19.91818 | 42836 ft | 415 kts | 299° |
| 2026-04-27 19:12 | 40.20922 | 19.88578 | 41298 ft | 417 kts | 299° |
| 2026-04-27 19:12 | 40.22400 | 19.85246 | 40044 ft | 426 kts | 299° |
| 2026-04-27 19:12 | 40.23868 | 19.81947 | 39212 ft | 422 kts | 299° |
| 2026-04-27 19:12 | 40.25341 | 19.78641 | 38153 ft | 419 kts | 300° |
| 2026-04-27 19:13 | 40.26807 | 19.75342 | 36857 ft | 419 kts | 299° |
| 2026-04-27 19:13 | 40.28267 | 19.72045 | 35570 ft | 419 kts | 299° |
| 2026-04-27 19:13 | 40.29732 | 19.68738 | 34222 ft | 419 kts | 299° |
| 2026-04-27 19:13 | 40.31194 | 19.65437 | 32572 ft | 420 kts | 299° |
| 2026-04-27 19:14 | 40.32665 | 19.62108 | 30706 ft | 425 kts | 299° |
| 2026-04-27 19:14 | 40.34160 | 19.58722 | 28835 ft | 430 kts | 300° |
| 2026-04-27 19:14 | 40.35639 | 19.55372 | 27502 ft | 419 kts | 300° |
| 2026-04-27 19:14 | 40.37081 | 19.52101 | 26121 ft | 411 kts | 300° |
| 2026-04-27 19:15 | 40.38500 | 19.48875 | 24794 ft | 405 kts | 300° |
| 2026-04-27 19:15 | 40.39892 | 19.45693 | 23483 ft | 399 kts | 300° |
| 2026-04-27 19:15 | 40.41247 | 19.42557 | 22052 ft | 392 kts | 300° |
| 2026-04-27 19:15 | 40.42575 | 19.39460 | 20671 ft | 387 kts | 300° |
| 2026-04-27 19:16 | 40.43935 | 19.36435 | 19341 ft | 382 kts | 302° |
| 2026-04-27 19:16 | 40.44843 | 19.34461 | 18497 ft | 379 kts | 302° |
| 2026-04-27 19:16 | 40.46593 | 19.30484 | 16654 ft | 373 kts | 300° |
| 2026-04-27 19:16 | 40.47857 | 19.27532 | 15370 ft | 368 kts | 300° |
| 2026-04-27 19:17 | 40.49116 | 19.24625 | 14140 ft | 364 kts | 300° |
| 2026-04-27 19:17 | 40.50367 | 19.21787 | 13257 ft | 357 kts | 300° |
| 2026-04-27 19:17 | 40.51553 | 19.19076 | 13046 ft | 326 kts | 300° |
| 2026-04-27 19:17 | 40.52627 | 19.16601 | 13040 ft | 302 kts | 300° |
| 2026-04-27 19:18 | 40.53672 | 19.14196 | 13043 ft | 307 kts | 300° |
| 2026-04-27 19:18 | 40.54735 | 19.11756 | 13050 ft | 308 kts | 300° |
| 2026-04-27 19:18 | 40.55802 | 19.09300 | 12830 ft | 306 kts | 300° |
| 2026-04-27 19:18 | 40.56873 | 19.06834 | 11346 ft | 321 kts | 300° |
| 2026-04-27 19:19 | 40.57936 | 19.04185 | 10334 ft | 324 kts | 290° |
| 2026-04-27 19:19 | 40.58142 | 19.01346 | 9896 ft | 303 kts | 261° |
| 2026-04-27 19:19 | 40.57732 | 18.98714 | 9604 ft | 289 kts | 256° |
| 2026-04-27 19:19 | 40.57359 | 18.96125 | 9343 ft | 288 kts | 260° |
| 2026-04-27 19:20 | 40.57097 | 18.93514 | 9097 ft | 288 kts | 262° |
| 2026-04-27 19:20 | 40.56837 | 18.90924 | 9093 ft | 286 kts | 261° |
| 2026-04-27 19:20 | 40.56534 | 18.88314 | 9098 ft | 289 kts | 260° |
| 2026-04-27 19:20 | 40.56227 | 18.85696 | 9098 ft | 290 kts | 260° |
| 2026-04-27 19:21 | 40.55932 | 18.83070 | 9092 ft | 291 kts | 260° |
| 2026-04-27 19:21 | 40.55637 | 18.80443 | 9095 ft | 291 kts | 260° |
| 2026-04-27 19:21 | 40.55338 | 18.77813 | 9096 ft | 291 kts | 260° |
| 2026-04-27 19:21 | 40.55036 | 18.75178 | 9095 ft | 291 kts | 261° |
| 2026-04-27 19:22 | 40.54737 | 18.72556 | 9096 ft | 291 kts | 261° |
| 2026-04-27 19:22 | 40.54437 | 18.69928 | 9095 ft | 291 kts | 261° |
| 2026-04-27 19:22 | 40.54135 | 18.67301 | 9094 ft | 291 kts | 261° |
| 2026-04-27 19:22 | 40.53836 | 18.64695 | 8920 ft | 295 kts | 261° |
| 2026-04-27 19:23 | 40.53532 | 18.62060 | 8402 ft | 287 kts | 261° |
| 2026-04-27 19:23 | 40.53240 | 18.59524 | 8001 ft | 275 kts | 261° |
| 2026-04-27 19:23 | 40.52958 | 18.57087 | 7615 ft | 265 kts | 261° |
| 2026-04-27 19:23 | 40.52685 | 18.54731 | 7234 ft | 257 kts | 261° |
| 2026-04-27 19:24 | 40.52419 | 18.52436 | 6861 ft | 251 kts | 261° |
| 2026-04-27 19:24 | 40.52157 | 18.50185 | 6490 ft | 248 kts | 261° |
| 2026-04-27 19:24 | 40.51897 | 18.47957 | 6104 ft | 246 kts | 261° |
| 2026-04-27 19:24 | 40.51638 | 18.45738 | 5724 ft | 245 kts | 261° |
| 2026-04-27 19:25 | 40.51381 | 18.43535 | 5350 ft | 243 kts | 261° |
| 2026-04-27 19:25 | 40.51125 | 18.41349 | 4983 ft | 241 kts | 262° |
| 2026-04-27 19:25 | 40.50871 | 18.39187 | 4608 ft | 238 kts | 262° |
| 2026-04-27 19:25 | 40.50620 | 18.37048 | 4228 ft | 236 kts | 262° |
| 2026-04-27 19:26 | 40.50371 | 18.34932 | 3863 ft | 233 kts | 263° |
| 2026-04-27 19:26 | 40.50146 | 18.32841 | 3565 ft | 226 kts | 269° |
| 2026-04-27 19:26 | 40.50339 | 18.30857 | 3591 ft | 217 kts | 284° |
| 2026-04-27 19:26 | 40.50684 | 18.28886 | 3600 ft | 224 kts | 285° |
| 2026-04-27 19:27 | 40.51036 | 18.26877 | 3604 ft | 227 kts | 284° |
| 2026-04-27 19:27 | 40.51392 | 18.24840 | 3603 ft | 229 kts | 284° |
| 2026-04-27 19:27 | 40.51748 | 18.22803 | 3599 ft | 229 kts | 284° |
| 2026-04-27 19:27 | 40.52104 | 18.20763 | 3603 ft | 229 kts | 284° |
| 2026-04-27 19:28 | 40.52455 | 18.18749 | 3603 ft | 229 kts | 284° |
| 2026-04-27 19:28 | 40.52810 | 18.16707 | 3545 ft | 231 kts | 284° |
| 2026-04-27 19:28 | 40.53176 | 18.14608 | 3235 ft | 230 kts | 284° |
| 2026-04-27 19:28 | 40.53522 | 18.12639 | 3092 ft | 215 kts | 284° |
| 2026-04-27 19:29 | 40.53845 | 18.10805 | 3083 ft | 199 kts | 284° |
| 2026-04-27 19:29 | 40.54260 | 18.09087 | 3015 ft | 201 kts | 300° |
| 2026-04-27 19:29 | 40.55187 | 18.07703 | 2820 ft | 204 kts | 316° |
| 2026-04-27 19:29 | 40.56244 | 18.06418 | 2561 ft | 208 kts | 317° |
| 2026-04-27 19:30 | 40.57299 | 18.05130 | 2282 ft | 203 kts | 317° |
| 2026-04-27 19:30 | 40.58305 | 18.03903 | 2016 ft | 192 kts | 317° |
| 2026-04-27 19:30 | 40.59263 | 18.02731 | 1755 ft | 184 kts | 316° |
| 2026-04-27 19:30 | 40.60183 | 18.01606 | 1518 ft | 177 kts | 316° |
| 2026-04-27 19:31 | 40.61028 | 18.00574 | 1282 ft | 152 kts | 316° |
| 2026-04-27 19:31 | 40.61765 | 17.99670 | 1088 ft | 140 kts | 316° |
| 2026-04-27 19:31 | 40.62454 | 17.98829 | 913 ft | 133 kts | 317° |
| 2026-04-27 19:31 | 40.63107 | 17.98027 | 775 ft | 126 kts | 316° |
| 2026-04-27 19:32 | 40.63741 | 17.97240 | 605 ft | 126 kts | 316° |
| 2026-04-27 19:32 | 40.64387 | 17.96454 | 423 ft | 126 kts | 317° |
| 2026-04-27 19:32 | 40.65021 | 17.95673 | 259 ft | 124 kts | 317° |
| 2026-04-27 19:32 | 40.65648 | 17.94913 | 110 ft | 121 kts | 317° |
| 2026-04-27 19:33 | 40.66245 | 17.94196 | 40 ft | 107 kts | 317° |
| 2026-04-27 19:33 | 40.66566 | 17.93801 | 37 ft | 77 kts | 316° |
| 2026-04-27 19:33 | 40.66753 | 17.93644 | 36 ft | 8 kts | 52° |
| 2026-04-27 19:33 | 40.66797 | 17.93704 | 39 ft | 11 kts | 41° |
| 2026-04-27 19:34 | 40.66815 | 17.93798 | 40 ft | 13 kts | 128° |
| 2026-04-27 19:34 | 40.66728 | 17.93892 | 40 ft | 21 kts | 136° |
| 2026-04-27 19:34 | 40.66602 | 17.94053 | 41 ft | 30 kts | 137° |
| 2026-04-27 19:34 | 40.66450 | 17.94237 | 41 ft | 29 kts | 137° |
| 2026-04-27 19:35 | 40.66304 | 17.94416 | 40 ft | 28 kts | 136° |
| 2026-04-27 19:35 | 40.66165 | 17.94585 | 40 ft | 26 kts | 137° |
| 2026-04-27 19:35 | 40.66064 | 17.94699 | 40 ft | 13 kts | 165° |
| 2026-04-27 19:35 | 40.66002 | 17.94657 | 39 ft | 12 kts | 231° |
| 2026-04-27 19:36 | 40.65938 | 17.94546 | 36 ft | 18 kts | 232° |
| 2026-04-27 19:36 | 40.65863 | 17.94420 | 39 ft | 16 kts | 231° |
| 2026-04-27 19:36 | 40.65801 | 17.94314 | 40 ft | 9 kts | 242° |
| 2026-04-27 19:36 | 40.65818 | 17.94277 | 40 ft | 6 kts | 321° |
| 2026-04-27 19:37 | 40.65853 | 17.94249 | 40 ft | 1 kts | 17° |
| 2026-04-27 19:37 | 40.65868 | 17.94252 | 40 ft | 2 kts | 343° |
| 2026-04-27 19:37 | 40.65886 | 17.94235 | 40 ft | 4 kts | 323° |
| 2026-04-27 19:37 | 40.65889 | 17.94232 | 40 ft | 0 kts | 323° |